sensor_id;sensor_type;location;lat;lon;timestamp;pressure;altitude;pressure_sealevel;temperature;humidity
20620;BME280;10469;42.720;23.252;2023-01-28T00:02:14;94257.06;;;0.17;100.00
20620;BME280;10469;42.720;23.252;2023-01-28T00:04:40;94271.13;;;0.24;100.00
20620;BME280;10469;42.720;23.252;2023-01-28T00:07:05;94269.94;;;0.48;100.00
20620;BME280;10469;42.720;23.252;2023-01-28T00:09:31;94279.72;;;0.33;100.00
20620;BME280;10469;42.720;23.252;2023-01-28T00:11:56;94274.78;;;0.23;100.00
20620;BME280;10469;42.720;23.252;2023-01-28T00:14:23;94294.09;;;0.30;100.00
20620;BME280;10469;42.720;23.252;2023-01-28T00:16:48;94281.63;;;0.17;100.00
20620;BME280;10469;42.720;23.252;2023-01-28T00:19:14;94301.16;;;0.23;100.00
20620;BME280;10469;42.720;23.252;2023-01-28T00:21:39;94293.69;;;0.27;100.00
20620;BME280;10469;42.720;23.252;2023-01-28T00:24:05;94298.44;;;0.38;100.00
20620;BME280;10469;42.720;23.252;2023-01-28T00:26:34;94299.13;;;0.46;100.00
20620;BME280;10469;42.720;23.252;2023-01-28T00:28:59;94307.72;;;0.55;100.00
20620;BME280;10469;42.720;23.252;2023-01-28T00:31:25;94314.09;;;0.39;100.00
20620;BME280;10469;42.720;23.252;2023-01-28T00:33:52;94299.19;;;0.32;100.00
20620;BME280;10469;42.720;23.252;2023-01-28T00:36:22;94304.66;;;0.30;100.00
20620;BME280;10469;42.720;23.252;2023-01-28T00:41:18;94317.31;;;0.35;100.00
20620;BME280;10469;42.720;23.252;2023-01-28T00:43:46;94296.94;;;0.29;100.00
20620;BME280;10469;42.720;23.252;2023-01-28T00:46:12;94321.03;;;0.25;100.00
20620;BME280;10469;42.720;23.252;2023-01-28T00:48:43;94321.00;;;0.40;100.00
20620;BME280;10469;42.720;23.252;2023-01-28T00:51:11;94329.22;;;0.31;100.00
20620;BME280;10469;42.720;23.252;2023-01-28T00:53:37;94321.69;;;0.49;100.00
20620;BME280;10469;42.720;23.252;2023-01-28T00:56:03;94320.91;;;0.34;100.00
20620;BME280;10469;42.720;23.252;2023-01-28T00:58:30;94314.00;;;0.33;100.00
20620;BME280;10469;42.720;23.252;2023-01-28T01:00:56;94309.66;;;0.25;100.00
20620;BME280;10469;42.720;23.252;2023-01-28T01:03:21;94316.66;;;0.33;100.00
20620;BME280;10469;42.720;23.252;2023-01-28T01:05:47;94316.41;;;0.28;100.00
20620;BME280;10469;42.720;23.252;2023-01-28T01:08:13;94310.19;;;0.14;100.00
20620;BME280;10469;42.720;23.252;2023-01-28T01:10:39;94325.00;;;0.36;100.00
20620;BME280;10469;42.720;23.252;2023-01-28T01:13:05;94324.91;;;0.44;100.00
20620;BME280;10469;42.720;23.252;2023-01-28T01:15:31;94318.72;;;0.37;100.00
20620;BME280;10469;42.720;23.252;2023-01-28T01:17:57;94320.22;;;0.25;100.00
20620;BME280;10469;42.720;23.252;2023-01-28T01:20:27;94328.31;;;0.23;100.00
20620;BME280;10469;42.720;23.252;2023-01-28T01:22:54;94330.09;;;0.38;100.00
20620;BME280;10469;42.720;23.252;2023-01-28T01:25:20;94322.13;;;0.31;100.00
20620;BME280;10469;42.720;23.252;2023-01-28T01:27:48;94331.66;;;0.32;100.00
20620;BME280;10469;42.720;23.252;2023-01-28T01:30:14;94325.56;;;0.32;100.00
20620;BME280;10469;42.720;23.252;2023-01-28T01:32:40;94332.97;;;0.43;100.00
20620;BME280;10469;42.720;23.252;2023-01-28T01:35:06;94324.75;;;0.31;100.00
20620;BME280;10469;42.720;23.252;2023-01-28T01:37:35;94318.78;;;0.22;100.00
20620;BME280;10469;42.720;23.252;2023-01-28T01:40:03;94336.84;;;0.25;100.00
20620;BME280;10469;42.720;23.252;2023-01-28T01:42:31;94333.81;;;0.07;100.00
20620;BME280;10469;42.720;23.252;2023-01-28T01:45:10;94336.78;;;0.19;100.00
20620;BME280;10469;42.720;23.252;2023-01-28T01:50:30;94326.06;;;0.42;100.00
20620;BME280;10469;42.720;23.252;2023-01-28T01:53:02;94337.75;;;0.33;100.00
20620;BME280;10469;42.720;23.252;2023-01-28T01:55:30;94334.66;;;0.29;100.00
20620;BME280;10469;42.720;23.252;2023-01-28T01:58:02;94335.03;;;0.05;100.00
20620;BME280;10469;42.720;23.252;2023-01-28T02:00:29;94339.78;;;0.16;100.00
20620;BME280;10469;42.720;23.252;2023-01-28T02:02:54;94324.63;;;0.18;100.00
20620;BME280;10469;42.720;23.252;2023-01-28T02:05:21;94337.81;;;0.18;100.00
20620;BME280;10469;42.720;23.252;2023-01-28T02:07:49;94331.41;;;0.27;100.00
20620;BME280;10469;42.720;23.252;2023-01-28T02:10:16;94340.53;;;0.46;100.00
20620;BME280;10469;42.720;23.252;2023-01-28T02:12:48;94337.97;;;0.16;100.00
20620;BME280;10469;42.720;23.252;2023-01-28T02:15:19;94346.88;;;0.15;100.00
20620;BME280;10469;42.720;23.252;2023-01-28T02:17:46;94342.88;;;0.19;100.00
20620;BME280;10469;42.720;23.252;2023-01-28T02:20:25;94345.72;;;0.18;100.00
20620;BME280;10469;42.720;23.252;2023-01-28T02:25:49;94351.81;;;0.18;100.00
20620;BME280;10469;42.720;23.252;2023-01-28T03:10:27;94351.59;;;-0.31;100.00
20620;BME280;10469;42.720;23.252;2023-01-28T03:12:55;94360.31;;;-0.16;100.00
20620;BME280;10469;42.720;23.252;2023-01-28T03:15:46;94364.81;;;0.05;100.00
20620;BME280;10469;42.720;23.252;2023-01-28T03:18:48;94359.31;;;0.00;100.00
20620;BME280;10469;42.720;23.252;2023-01-28T03:21:39;94373.00;;;0.10;100.00
20620;BME280;10469;42.720;23.252;2023-01-28T03:24:29;94367.38;;;-0.02;100.00
20620;BME280;10469;42.720;23.252;2023-01-28T03:27:28;94362.75;;;-0.14;100.00
20620;BME280;10469;42.720;23.252;2023-01-28T03:30:42;94356.59;;;-0.21;100.00
20620;BME280;10469;42.720;23.252;2023-01-28T03:33:26;94366.47;;;-0.23;100.00
20620;BME280;10469;42.720;23.252;2023-01-28T03:36:11;94366.91;;;-0.05;100.00
20620;BME280;10469;42.720;23.252;2023-01-28T03:38:55;94365.16;;;-0.34;100.00
20620;BME280;10469;42.720;23.252;2023-01-28T03:41:24;94361.88;;;-0.21;100.00
20620;BME280;10469;42.720;23.252;2023-01-28T03:43:50;94374.03;;;-0.20;100.00
20620;BME280;10469;42.720;23.252;2023-01-28T03:46:16;94375.03;;;-0.21;100.00
20620;BME280;10469;42.720;23.252;2023-01-28T03:48:43;94371.66;;;-0.15;100.00
20620;BME280;10469;42.720;23.252;2023-01-28T03:51:09;94373.78;;;-0.26;100.00
20620;BME280;10469;42.720;23.252;2023-01-28T03:53:34;94375.66;;;-0.19;100.00
20620;BME280;10469;42.720;23.252;2023-01-28T03:56:00;94377.84;;;-0.23;100.00
20620;BME280;10469;42.720;23.252;2023-01-28T03:58:25;94381.03;;;-0.28;100.00
20620;BME280;10469;42.720;23.252;2023-01-28T04:01:11;94374.84;;;-0.35;100.00
20620;BME280;10469;42.720;23.252;2023-01-28T04:03:36;94375.75;;;-0.13;100.00
20620;BME280;10469;42.720;23.252;2023-01-28T04:06:04;94381.06;;;0.23;100.00
20620;BME280;10469;42.720;23.252;2023-01-28T04:08:30;94379.69;;;0.28;100.00
20620;BME280;10469;42.720;23.252;2023-01-28T04:10:56;94382.66;;;-0.12;100.00
20620;BME280;10469;42.720;23.252;2023-01-28T04:13:21;94393.66;;;-0.08;100.00
20620;BME280;10469;42.720;23.252;2023-01-28T04:15:47;94369.94;;;-0.23;100.00
20620;BME280;10469;42.720;23.252;2023-01-28T04:18:13;94396.38;;;-0.16;100.00
20620;BME280;10469;42.720;23.252;2023-01-28T04:20:39;94396.47;;;-0.24;100.00
20620;BME280;10469;42.720;23.252;2023-01-28T04:23:05;94385.75;;;-0.23;100.00
20620;BME280;10469;42.720;23.252;2023-01-28T04:25:32;94407.91;;;-0.32;100.00
20620;BME280;10469;42.720;23.252;2023-01-28T04:27:58;94402.81;;;-0.19;100.00
20620;BME280;10469;42.720;23.252;2023-01-28T04:30:24;94395.09;;;-0.35;100.00
20620;BME280;10469;42.720;23.252;2023-01-28T04:32:50;94385.66;;;-0.30;100.00
20620;BME280;10469;42.720;23.252;2023-01-28T04:35:18;94412.19;;;-0.16;100.00
20620;BME280;10469;42.720;23.252;2023-01-28T04:37:44;94413.56;;;-0.20;100.00
20620;BME280;10469;42.720;23.252;2023-01-28T04:40:11;94418.09;;;-0.29;100.00
20620;BME280;10469;42.720;23.252;2023-01-28T04:42:37;94411.19;;;-0.30;100.00
20620;BME280;10469;42.720;23.252;2023-01-28T04:45:03;94417.63;;;-0.33;100.00
20620;BME280;10469;42.720;23.252;2023-01-28T04:47:29;94422.63;;;-0.23;100.00
20620;BME280;10469;42.720;23.252;2023-01-28T04:49:55;94418.53;;;-0.40;100.00
20620;BME280;10469;42.720;23.252;2023-01-28T04:52:20;94418.38;;;-0.39;100.00
20620;BME280;10469;42.720;23.252;2023-01-28T04:54:46;94410.97;;;-0.43;100.00
20620;BME280;10469;42.720;23.252;2023-01-28T04:57:11;94407.84;;;-0.39;100.00
20620;BME280;10469;42.720;23.252;2023-01-28T04:59:37;94433.81;;;-0.21;100.00
20620;BME280;10469;42.720;23.252;2023-01-28T05:02:02;94442.06;;;-0.39;100.00
20620;BME280;10469;42.720;23.252;2023-01-28T05:04:28;94425.81;;;-0.28;100.00
20620;BME280;10469;42.720;23.252;2023-01-28T05:06:54;94433.16;;;-0.23;100.00
20620;BME280;10469;42.720;23.252;2023-01-28T05:09:19;94451.22;;;-0.35;100.00
20620;BME280;10469;42.720;23.252;2023-01-28T05:11:44;94432.78;;;-0.35;100.00
20620;BME280;10469;42.720;23.252;2023-01-28T05:14:10;94427.09;;;-0.38;100.00
20620;BME280;10469;42.720;23.252;2023-01-28T05:16:35;94452.50;;;-0.31;100.00
20620;BME280;10469;42.720;23.252;2023-01-28T05:19:01;94452.34;;;-0.29;100.00
20620;BME280;10469;42.720;23.252;2023-01-28T05:21:28;94441.16;;;-0.31;100.00
20620;BME280;10469;42.720;23.252;2023-01-28T05:23:53;94456.16;;;-0.32;100.00
20620;BME280;10469;42.720;23.252;2023-01-28T05:26:19;94449.69;;;-0.44;100.00
20620;BME280;10469;42.720;23.252;2023-01-28T05:28:45;94457.63;;;-0.29;100.00
20620;BME280;10469;42.720;23.252;2023-01-28T05:31:10;94446.81;;;-0.34;100.00
20620;BME280;10469;42.720;23.252;2023-01-28T05:33:36;94460.59;;;-0.17;100.00
20620;BME280;10469;42.720;23.252;2023-01-28T05:36:02;94461.53;;;-0.25;100.00
20620;BME280;10469;42.720;23.252;2023-01-28T05:38:27;94467.63;;;-0.10;100.00
20620;BME280;10469;42.720;23.252;2023-01-28T05:40:54;94469.06;;;-0.22;100.00
20620;BME280;10469;42.720;23.252;2023-01-28T05:43:19;94465.06;;;-0.33;100.00
20620;BME280;10469;42.720;23.252;2023-01-28T05:45:45;94475.44;;;-0.16;100.00
20620;BME280;10469;42.720;23.252;2023-01-28T05:48:12;94475.44;;;-0.16;100.00
20620;BME280;10469;42.720;23.252;2023-01-28T05:50:38;94476.13;;;-0.22;100.00
20620;BME280;10469;42.720;23.252;2023-01-28T05:53:05;94462.06;;;-0.15;100.00
20620;BME280;10469;42.720;23.252;2023-01-28T05:55:31;94474.50;;;-0.23;100.00
20620;BME280;10469;42.720;23.252;2023-01-28T05:57:56;94467.97;;;-0.28;100.00
20620;BME280;10469;42.720;23.252;2023-01-28T06:00:22;94466.22;;;-0.35;100.00
20620;BME280;10469;42.720;23.252;2023-01-28T06:02:50;94480.31;;;-0.43;100.00
20620;BME280;10469;42.720;23.252;2023-01-28T06:05:15;94471.75;;;-0.45;100.00
20620;BME280;10469;42.720;23.252;2023-01-28T06:07:44;94487.56;;;-0.45;100.00
20620;BME280;10469;42.720;23.252;2023-01-28T06:10:10;94488.03;;;-0.41;100.00
20620;BME280;10469;42.720;23.252;2023-01-28T06:12:35;94491.72;;;-0.13;100.00
20620;BME280;10469;42.720;23.252;2023-01-28T06:15:01;94483.25;;;-0.08;100.00
20620;BME280;10469;42.720;23.252;2023-01-28T06:17:26;94503.75;;;-0.33;100.00
20620;BME280;10469;42.720;23.252;2023-01-28T06:19:52;94505.94;;;-0.22;100.00
20620;BME280;10469;42.720;23.252;2023-01-28T06:22:17;94512.25;;;-0.08;100.00
20620;BME280;10469;42.720;23.252;2023-01-28T06:24:43;94506.88;;;-0.15;100.00
20620;BME280;10469;42.720;23.252;2023-01-28T06:27:08;94513.53;;;-0.04;100.00
20620;BME280;10469;42.720;23.252;2023-01-28T06:29:34;94522.34;;;-0.12;100.00
20620;BME280;10469;42.720;23.252;2023-01-28T06:31:59;94521.59;;;-0.20;100.00
20620;BME280;10469;42.720;23.252;2023-01-28T06:34:25;94524.69;;;-0.02;100.00
20620;BME280;10469;42.720;23.252;2023-01-28T06:36:50;94516.25;;;-0.12;100.00
20620;BME280;10469;42.720;23.252;2023-01-28T06:39:18;94542.22;;;-0.09;100.00
20620;BME280;10469;42.720;23.252;2023-01-28T06:41:46;94532.91;;;-0.35;100.00
20620;BME280;10469;42.720;23.252;2023-01-28T06:44:11;94537.41;;;-0.20;100.00
20620;BME280;10469;42.720;23.252;2023-01-28T06:46:37;94550.78;;;-0.07;100.00
20620;BME280;10469;42.720;23.252;2023-01-28T06:49:02;94540.88;;;-0.05;100.00
20620;BME280;10469;42.720;23.252;2023-01-28T06:51:28;94548.00;;;0.09;100.00
20620;BME280;10469;42.720;23.252;2023-01-28T06:53:53;94554.22;;;-0.07;100.00
20620;BME280;10469;42.720;23.252;2023-01-28T06:56:19;94559.63;;;0.00;100.00
20620;BME280;10469;42.720;23.252;2023-01-28T06:58:44;94556.19;;;0.14;100.00
20620;BME280;10469;42.720;23.252;2023-01-28T07:01:10;94559.72;;;0.07;100.00
20620;BME280;10469;42.720;23.252;2023-01-28T07:03:35;94562.34;;;0.21;100.00
20620;BME280;10469;42.720;23.252;2023-01-28T07:06:01;94555.72;;;-0.04;100.00
20620;BME280;10469;42.720;23.252;2023-01-28T07:08:26;94566.38;;;0.17;100.00
20620;BME280;10469;42.720;23.252;2023-01-28T07:10:52;94555.81;;;0.17;100.00
20620;BME280;10469;42.720;23.252;2023-01-28T07:13:17;94575.94;;;-0.05;100.00
20620;BME280;10469;42.720;23.252;2023-01-28T07:15:43;94577.00;;;0.24;100.00
20620;BME280;10469;42.720;23.252;2023-01-28T07:18:08;94583.81;;;0.18;100.00
20620;BME280;10469;42.720;23.252;2023-01-28T07:20:34;94576.00;;;0.10;100.00
20620;BME280;10469;42.720;23.252;2023-01-28T07:22:59;94586.06;;;0.21;100.00
20620;BME280;10469;42.720;23.252;2023-01-28T07:25:25;94580.72;;;0.30;100.00
20620;BME280;10469;42.720;23.252;2023-01-28T07:27:52;94581.94;;;0.27;100.00
20620;BME280;10469;42.720;23.252;2023-01-28T07:30:19;94577.94;;;0.31;100.00
20620;BME280;10469;42.720;23.252;2023-01-28T07:32:45;94588.75;;;0.51;100.00
20620;BME280;10469;42.720;23.252;2023-01-28T07:35:11;94580.13;;;0.57;100.00
20620;BME280;10469;42.720;23.252;2023-01-28T07:37:38;94587.19;;;0.42;100.00
20620;BME280;10469;42.720;23.252;2023-01-28T07:40:03;94588.75;;;0.51;100.00
20620;BME280;10469;42.720;23.252;2023-01-28T07:42:29;94599.72;;;0.10;100.00
20620;BME280;10469;42.720;23.252;2023-01-28T07:44:55;94593.13;;;0.44;100.00
20620;BME280;10469;42.720;23.252;2023-01-28T07:47:21;94592.66;;;0.40;100.00
20620;BME280;10469;42.720;23.252;2023-01-28T07:49:46;94592.19;;;0.37;100.00
20620;BME280;10469;42.720;23.252;2023-01-28T07:52:12;94607.22;;;0.51;100.00
20620;BME280;10469;42.720;23.252;2023-01-28T07:54:37;94610.22;;;0.48;100.00
20620;BME280;10469;42.720;23.252;2023-01-28T07:57:07;94619.22;;;0.54;100.00
20620;BME280;10469;42.720;23.252;2023-01-28T07:59:34;94593.84;;;0.38;100.00
20620;BME280;10469;42.720;23.252;2023-01-28T08:02:00;94613.50;;;0.80;100.00
20620;BME280;10469;42.720;23.252;2023-01-28T08:04:25;94612.50;;;0.81;100.00
20620;BME280;10469;42.720;23.252;2023-01-28T08:06:51;94608.41;;;0.93;100.00
20620;BME280;10469;42.720;23.252;2023-01-28T08:09:16;94612.03;;;0.77;100.00
20620;BME280;10469;42.720;23.252;2023-01-28T08:11:42;94632.97;;;0.79;100.00
20620;BME280;10469;42.720;23.252;2023-01-28T08:14:09;94628.75;;;0.99;100.00
20620;BME280;10469;42.720;23.252;2023-01-28T08:16:35;94625.22;;;1.07;100.00
20620;BME280;10469;42.720;23.252;2023-01-28T08:19:00;94634.78;;;0.93;100.00
20620;BME280;10469;42.720;23.252;2023-01-28T08:21:27;94615.88;;;0.74;100.00
20620;BME280;10469;42.720;23.252;2023-01-28T08:23:52;94635.41;;;1.10;100.00
20620;BME280;10469;42.720;23.252;2023-01-28T08:26:18;94626.97;;;0.99;100.00
20620;BME280;10469;42.720;23.252;2023-01-28T08:28:44;94633.84;;;1.15;100.00
20620;BME280;10469;42.720;23.252;2023-01-28T08:31:09;94638.13;;;1.31;100.00
20620;BME280;10469;42.720;23.252;2023-01-28T08:33:35;94633.81;;;1.66;100.00
20620;BME280;10469;42.720;23.252;2023-01-28T08:36:04;94634.50;;;1.54;100.00
20620;BME280;10469;42.720;23.252;2023-01-28T08:38:30;94637.00;;;1.40;100.00
20620;BME280;10469;42.720;23.252;2023-01-28T08:40:56;94620.47;;;1.53;100.00
20620;BME280;10469;42.720;23.252;2023-01-28T08:43:23;94624.59;;;0.90;100.00
20620;BME280;10469;42.720;23.252;2023-01-28T08:45:49;94644.88;;;0.89;100.00
20620;BME280;10469;42.720;23.252;2023-01-28T08:48:17;94650.81;;;1.42;100.00
20620;BME280;10469;42.720;23.252;2023-01-28T08:50:43;94633.03;;;1.51;100.00
20620;BME280;10469;42.720;23.252;2023-01-28T08:53:18;94636.97;;;1.76;100.00
20620;BME280;10469;42.720;23.252;2023-01-28T08:55:44;94632.06;;;1.73;100.00
20620;BME280;10469;42.720;23.252;2023-01-28T08:58:12;94629.38;;;1.88;100.00
20620;BME280;10469;42.720;23.252;2023-01-28T09:00:41;94638.56;;;1.92;100.00
20620;BME280;10469;42.720;23.252;2023-01-28T09:03:07;94636.56;;;1.73;100.00
20620;BME280;10469;42.720;23.252;2023-01-28T09:05:34;94632.63;;;1.47;100.00
20620;BME280;10469;42.720;23.252;2023-01-28T09:08:04;94653.50;;;1.28;100.00
20620;BME280;10469;42.720;23.252;2023-01-28T09:10:30;94655.72;;;1.60;100.00
20620;BME280;10469;42.720;23.252;2023-01-28T09:12:56;94657.69;;;1.73;100.00
20620;BME280;10469;42.720;23.252;2023-01-28T09:15:21;94640.03;;;1.08;100.00
20620;BME280;10469;42.720;23.252;2023-01-28T09:17:47;94654.06;;;1.59;100.00
20620;BME280;10469;42.720;23.252;2023-01-28T09:20:12;94649.94;;;1.35;100.00
20620;BME280;10469;42.720;23.252;2023-01-28T09:22:38;94643.38;;;1.67;100.00
20620;BME280;10469;42.720;23.252;2023-01-28T09:25:04;94630.00;;;1.69;100.00
20620;BME280;10469;42.720;23.252;2023-01-28T09:27:30;94642.53;;;0.80;100.00
20620;BME280;10469;42.720;23.252;2023-01-28T09:29:56;94654.47;;;1.41;100.00
20620;BME280;10469;42.720;23.252;2023-01-28T09:32:21;94640.81;;;1.74;100.00
20620;BME280;10469;42.720;23.252;2023-01-28T09:34:49;94647.13;;;1.94;100.00
20620;BME280;10469;42.720;23.252;2023-01-28T09:37:14;94640.66;;;1.39;100.00
20620;BME280;10469;42.720;23.252;2023-01-28T09:39:40;94633.66;;;1.32;100.00
20620;BME280;10469;42.720;23.252;2023-01-28T09:47:40;94639.00;;;1.96;100.00
20620;BME280;10469;42.720;23.252;2023-01-28T09:50:13;94634.88;;;2.64;100.00
20620;BME280;10469;42.720;23.252;2023-01-28T09:52:40;94642.25;;;1.76;100.00
20620;BME280;10469;42.720;23.252;2023-01-28T09:55:17;94650.97;;;1.19;100.00
20620;BME280;10469;42.720;23.252;2023-01-28T09:57:50;94638.81;;;1.40;100.00
20620;BME280;10469;42.720;23.252;2023-01-28T10:00:20;94645.97;;;1.61;100.00
20620;BME280;10469;42.720;23.252;2023-01-28T10:06:29;94638.25;;;1.08;100.00
20620;BME280;10469;42.720;23.252;2023-01-28T10:14:58;94635.69;;;1.51;100.00
20620;BME280;10469;42.720;23.252;2023-01-28T10:17:36;94604.91;;;1.07;100.00
20620;BME280;10469;42.720;23.252;2023-01-28T10:25:22;94636.72;;;1.93;100.00
20620;BME280;10469;42.720;23.252;2023-01-28T10:27:49;94610.38;;;2.28;100.00
20620;BME280;10469;42.720;23.252;2023-01-28T10:30:21;94641.31;;;2.27;100.00
20620;BME280;10469;42.720;23.252;2023-01-28T10:35:25;94649.50;;;1.32;100.00
20620;BME280;10469;42.720;23.252;2023-01-28T10:37:58;94610.34;;;1.20;100.00
20620;BME280;10469;42.720;23.252;2023-01-28T10:40:25;94631.88;;;0.88;100.00
20620;BME280;10469;42.720;23.252;2023-01-28T10:42:51;94600.47;;;1.44;100.00
20620;BME280;10469;42.720;23.252;2023-01-28T10:45:33;94607.94;;;0.89;100.00
20620;BME280;10469;42.720;23.252;2023-01-28T10:50:53;94631.25;;;1.00;100.00
20620;BME280;10469;42.720;23.252;2023-01-28T10:53:42;94637.81;;;1.41;100.00
20620;BME280;10469;42.720;23.252;2023-01-28T10:56:10;94636.63;;;0.92;100.00
20620;BME280;10469;42.720;23.252;2023-01-28T10:59:14;94619.97;;;1.43;100.00
20620;BME280;10469;42.720;23.252;2023-01-28T11:01:48;94640.81;;;1.53;100.00
20620;BME280;10469;42.720;23.252;2023-01-28T11:07:03;94633.28;;;1.20;100.00
20620;BME280;10469;42.720;23.252;2023-01-28T11:09:34;94623.44;;;1.29;100.00
20620;BME280;10469;42.720;23.252;2023-01-28T11:12:26;94629.25;;;1.75;100.00
20620;BME280;10469;42.720;23.252;2023-01-28T11:14:53;94628.78;;;1.71;100.00
20620;BME280;10469;42.720;23.252;2023-01-28T11:17:21;94631.94;;;1.24;100.00
20620;BME280;10469;42.720;23.252;2023-01-28T11:19:49;94619.25;;;1.34;100.00
20620;BME280;10469;42.720;23.252;2023-01-28T11:22:32;94626.84;;;1.22;100.00
20620;BME280;10469;42.720;23.252;2023-01-28T11:25:00;94616.91;;;1.61;100.00
20620;BME280;10469;42.720;23.252;2023-01-28T11:27:30;94626.53;;;1.90;100.00
20620;BME280;10469;42.720;23.252;2023-01-28T11:29:56;94621.56;;;2.51;100.00
20620;BME280;10469;42.720;23.252;2023-01-28T11:32:26;94621.09;;;2.19;100.00
20620;BME280;10469;42.720;23.252;2023-01-28T11:34:54;94621.97;;;2.26;100.00
20620;BME280;10469;42.720;23.252;2023-01-28T11:37:26;94614.81;;;2.48;100.00
20620;BME280;10469;42.720;23.252;2023-01-28T11:40:17;94611.72;;;2.45;100.00
20620;BME280;10469;42.720;23.252;2023-01-28T11:42:52;94615.88;;;2.26;100.00
20620;BME280;10469;42.720;23.252;2023-01-28T11:45:24;94620.34;;;2.25;100.00
20620;BME280;10469;42.720;23.252;2023-01-28T12:00:59;94609.25;;;2.71;100.00
20620;BME280;10469;42.720;23.252;2023-01-28T12:16:28;94609.66;;;2.12;100.00
20620;BME280;10469;42.720;23.252;2023-01-28T12:19:23;94612.47;;;2.11;100.00
20620;BME280;10469;42.720;23.252;2023-01-28T12:35:28;94608.59;;;1.85;100.00
20620;BME280;10469;42.720;23.252;2023-01-28T12:38:07;94626.38;;;2.19;100.00
20620;BME280;10469;42.720;23.252;2023-01-28T12:46:36;94627.28;;;2.05;100.00
20620;BME280;10469;42.720;23.252;2023-01-28T12:50:10;94628.72;;;2.29;100.00
20620;BME280;10469;42.720;23.252;2023-01-28T12:54:56;94638.66;;;1.63;100.00
20620;BME280;10469;42.720;23.252;2023-01-28T12:57:28;94643.53;;;1.44;100.00
20620;BME280;10469;42.720;23.252;2023-01-28T13:02:34;94640.50;;;2.05;100.00
20620;BME280;10469;42.720;23.252;2023-01-28T13:05:09;94639.31;;;2.08;100.00
20620;BME280;10469;42.720;23.252;2023-01-28T13:07:52;94657.16;;;1.99;100.00
20620;BME280;10469;42.720;23.252;2023-01-28T13:10:26;94652.53;;;1.86;100.00
20620;BME280;10469;42.720;23.252;2023-01-28T13:12:53;94654.84;;;1.74;100.00
20620;BME280;10469;42.720;23.252;2023-01-28T13:15:19;94650.59;;;1.95;100.00
20620;BME280;10469;42.720;23.252;2023-01-28T13:18:02;94657.63;;;2.09;100.00
20620;BME280;10469;42.720;23.252;2023-01-28T13:20:49;94659.16;;;1.97;100.00
20620;BME280;10469;42.720;23.252;2023-01-28T13:28:42;94666.31;;;2.24;100.00
20620;BME280;10469;42.720;23.252;2023-01-28T13:31:09;94669.16;;;2.23;100.00
20620;BME280;10469;42.720;23.252;2023-01-28T13:36:30;94663.81;;;2.16;100.00
20620;BME280;10469;42.720;23.252;2023-01-28T13:41:46;94680.53;;;1.81;100.00
20620;BME280;10469;42.720;23.252;2023-01-28T13:46:54;94680.28;;;1.75;100.00
20620;BME280;10469;42.720;23.252;2023-01-28T13:49:35;94680.84;;;1.71;100.00
20620;BME280;10469;42.720;23.252;2023-01-28T13:52:13;94687.81;;;1.57;100.00
20620;BME280;10469;42.720;23.252;2023-01-28T13:54:47;94674.19;;;1.39;100.00
20620;BME280;10469;42.720;23.252;2023-01-28T14:19:02;94713.63;;;1.25;100.00
20620;BME280;10469;42.720;23.252;2023-01-28T14:21:33;94714.34;;;1.19;100.00
20620;BME280;10469;42.720;23.252;2023-01-28T14:23:59;94717.25;;;1.24;100.00
20620;BME280;10469;42.720;23.252;2023-01-28T14:31:44;94721.47;;;1.19;100.00
20620;BME280;10469;42.720;23.252;2023-01-28T14:34:28;94727.19;;;1.08;100.00
20620;BME280;10469;42.720;23.252;2023-01-28T14:37:03;94717.81;;;0.90;100.00
20620;BME280;10469;42.720;23.252;2023-01-28T14:39:42;94742.22;;;1.22;100.00
20620;BME280;10469;42.720;23.252;2023-01-28T14:42:26;94733.41;;;1.00;100.00
20620;BME280;10469;42.720;23.252;2023-01-28T14:56:01;94737.53;;;0.65;100.00
20620;BME280;10469;42.720;23.252;2023-01-28T14:58:37;94727.88;;;0.72;100.00
20620;BME280;10469;42.720;23.252;2023-01-28T15:01:03;94745.97;;;0.60;100.00
20620;BME280;10469;42.720;23.252;2023-01-28T15:03:29;94759.28;;;0.82;100.00
20620;BME280;10469;42.720;23.252;2023-01-28T15:06:03;94762.72;;;0.67;100.00
20620;BME280;10469;42.720;23.252;2023-01-28T15:08:28;94752.31;;;0.51;100.00
20620;BME280;10469;42.720;23.252;2023-01-28T15:10:57;94754.63;;;0.69;100.00
20620;BME280;10469;42.720;23.252;2023-01-28T15:13:33;94765.56;;;0.81;100.00
20620;BME280;10469;42.720;23.252;2023-01-28T15:16:01;94764.09;;;0.63;100.00
20620;BME280;10469;42.720;23.252;2023-01-28T15:18:40;94761.66;;;0.77;100.00
20620;BME280;10469;42.720;23.252;2023-01-28T15:21:06;94755.28;;;0.86;100.00
20620;BME280;10469;42.720;23.252;2023-01-28T15:23:36;94757.59;;;0.51;100.00
20620;BME280;10469;42.720;23.252;2023-01-28T15:26:07;94771.72;;;0.58;100.00
20620;BME280;10469;42.720;23.252;2023-01-28T16:59:27;94846.81;;;0.47;100.00
20620;BME280;10469;42.720;23.252;2023-01-28T17:02:45;94843.63;;;0.29;100.00
20620;BME280;10469;42.720;23.252;2023-01-28T17:09:33;94854.56;;;0.49;100.00
20620;BME280;10469;42.720;23.252;2023-01-28T17:16:37;94865.47;;;0.46;100.00
20620;BME280;10469;42.720;23.252;2023-01-28T17:19:29;94815.00;;;-0.05;100.00
20620;BME280;10469;42.720;23.252;2023-01-28T17:26:38;94878.47;;;0.16;100.00
20620;BME280;10469;42.720;23.252;2023-01-28T17:29:59;94883.38;;;0.28;100.00
20620;BME280;10469;42.720;23.252;2023-01-28T17:36:38;94816.44;;;-0.34;100.00
20620;BME280;10469;42.720;23.252;2023-01-28T17:39:04;94875.94;;;0.00;100.00
20620;BME280;10469;42.720;23.252;2023-01-28T17:41:32;94879.84;;;0.04;100.00
20620;BME280;10469;42.720;23.252;2023-01-28T17:43:57;94878.38;;;0.10;100.00
20620;BME280;10469;42.720;23.252;2023-01-28T17:46:24;94879.50;;;0.07;100.00
20620;BME280;10469;42.720;23.252;2023-01-28T17:48:50;94882.56;;;0.27;100.00
20620;BME280;10469;42.720;23.252;2023-01-28T17:51:16;94885.72;;;0.22;100.00